sensor_id;sensor_type;location;lat;lon;timestamp;temperature;humidity
70170;DHT22;57543;45.442;9.212;2023-03-25T00:02:37;16.51;63.41
70170;DHT22;57543;45.442;9.212;2023-03-25T00:05:40;16.49;63.22
70170;DHT22;57543;45.442;9.212;2023-03-25T00:08:44;16.48;63.52
70170;DHT22;57543;45.442;9.212;2023-03-25T00:11:51;16.41;63.79
70170;DHT22;57543;45.442;9.212;2023-03-25T00:14:55;16.35;64.18
70170;DHT22;57543;45.442;9.212;2023-03-25T00:18:01;16.22;64.96
70170;DHT22;57543;45.442;9.212;2023-03-25T00:21:06;16.25;64.97
70170;DHT22;57543;45.442;9.212;2023-03-25T00:24:14;16.29;64.94
70170;DHT22;57543;45.442;9.212;2023-03-25T00:27:20;16.42;64.61
70170;DHT22;57543;45.442;9.212;2023-03-25T00:30:23;16.41;64.63
70170;DHT22;57543;45.442;9.212;2023-03-25T00:33:28;16.56;64.35
70170;DHT22;57543;45.442;9.212;2023-03-25T00:36:31;16.51;64.83
70170;DHT22;57543;45.442;9.212;2023-03-25T00:39:35;16.51;64.79
70170;DHT22;57543;45.442;9.212;2023-03-25T00:42:40;16.60;64.44
70170;DHT22;57543;45.442;9.212;2023-03-25T00:45:54;16.48;65.01
70170;DHT22;57543;45.442;9.212;2023-03-25T00:48:59;16.53;64.71
70170;DHT22;57543;45.442;9.212;2023-03-25T00:52:07;16.45;65.16
70170;DHT22;57543;45.442;9.212;2023-03-25T00:55:10;16.48;64.92
70170;DHT22;57543;45.442;9.212;2023-03-25T00:58:14;16.55;64.70
70170;DHT22;57543;45.442;9.212;2023-03-25T01:01:21;16.49;64.95
70170;DHT22;57543;45.442;9.212;2023-03-25T01:04:29;16.53;64.98
70170;DHT22;57543;45.442;9.212;2023-03-25T01:07:32;16.46;65.13
70170;DHT22;57543;45.442;9.212;2023-03-25T01:10:37;16.56;64.85
70170;DHT22;57543;45.442;9.212;2023-03-25T01:13:41;16.29;65.69
70170;DHT22;57543;45.442;9.212;2023-03-25T01:16:45;16.22;66.14
70170;DHT22;57543;45.442;9.212;2023-03-25T01:19:48;16.21;66.02
70170;DHT22;57543;45.442;9.212;2023-03-25T01:22:51;16.15;66.41
70170;DHT22;57543;45.442;9.212;2023-03-25T01:25:55;16.00;66.88
70170;DHT22;57543;45.442;9.212;2023-03-25T01:28:59;15.96;67.04
70170;DHT22;57543;45.442;9.212;2023-03-25T01:32:03;16.01;66.93
70170;DHT22;57543;45.442;9.212;2023-03-25T01:35:06;16.10;66.72
70170;DHT22;57543;45.442;9.212;2023-03-25T01:38:10;16.15;66.55
70170;DHT22;57543;45.442;9.212;2023-03-25T01:41:14;16.18;66.48
70170;DHT22;57543;45.442;9.212;2023-03-25T01:47:21;16.26;66.29
70170;DHT22;57543;45.442;9.212;2023-03-25T01:50:25;16.24;66.49
70170;DHT22;57543;45.442;9.212;2023-03-25T01:53:31;16.28;66.34
70170;DHT22;57543;45.442;9.212;2023-03-25T01:56:39;16.14;66.73
70170;DHT22;57543;45.442;9.212;2023-03-25T01:59:45;16.08;66.97
70170;DHT22;57543;45.442;9.212;2023-03-25T02:02:49;15.98;67.32
70170;DHT22;57543;45.442;9.212;2023-03-25T02:06:00;15.90;67.69
70170;DHT22;57543;45.442;9.212;2023-03-25T02:09:09;15.84;68.01
70170;DHT22;57543;45.442;9.212;2023-03-25T02:12:14;15.73;68.16
70170;DHT22;57543;45.442;9.212;2023-03-25T02:15:18;15.63;68.95
70170;DHT22;57543;45.442;9.212;2023-03-25T02:29:13;15.65;68.73
70170;DHT22;57543;45.442;9.212;2023-03-25T02:32:48;15.73;68.38
70170;DHT22;57543;45.442;9.212;2023-03-25T02:39:21;15.77;67.96
70170;DHT22;57543;45.442;9.212;2023-03-25T02:42:38;15.76;67.69
70170;DHT22;57543;45.442;9.212;2023-03-25T02:45:45;15.83;67.39
70170;DHT22;57543;45.442;9.212;2023-03-25T02:49:02;15.93;66.94
70170;DHT22;57543;45.442;9.212;2023-03-25T02:52:16;15.86;67.13
70170;DHT22;57543;45.442;9.212;2023-03-25T02:55:22;15.82;67.47
70170;DHT22;57543;45.442;9.212;2023-03-25T02:58:28;15.66;67.89
70170;DHT22;57543;45.442;9.212;2023-03-25T03:01:34;15.58;68.06
70170;DHT22;57543;45.442;9.212;2023-03-25T03:04:50;15.46;68.35
70170;DHT22;57543;45.442;9.212;2023-03-25T03:18:30;15.66;67.93
70170;DHT22;57543;45.442;9.212;2023-03-25T03:21:47;15.69;67.72
70170;DHT22;57543;45.442;9.212;2023-03-25T03:25:14;15.77;67.40
70170;DHT22;57543;45.442;9.212;2023-03-25T03:28:26;15.71;67.54
70170;DHT22;57543;45.442;9.212;2023-03-25T03:31:42;15.71;67.62
70170;DHT22;57543;45.442;9.212;2023-03-25T03:34:56;15.58;68.05
70170;DHT22;57543;45.442;9.212;2023-03-25T03:38:05;15.50;68.13
70170;DHT22;57543;45.442;9.212;2023-03-25T03:41:16;15.53;68.14
70170;DHT22;57543;45.442;9.212;2023-03-25T03:44:24;15.58;67.98
70170;DHT22;57543;45.442;9.212;2023-03-25T03:47:35;15.43;68.40
70170;DHT22;57543;45.442;9.212;2023-03-25T03:50:46;15.42;68.46
70170;DHT22;57543;45.442;9.212;2023-03-25T03:54:06;15.39;68.58
70170;DHT22;57543;45.442;9.212;2023-03-25T04:01:02;15.32;68.96
70170;DHT22;57543;45.442;9.212;2023-03-25T04:04:08;15.41;68.63
70170;DHT22;57543;45.442;9.212;2023-03-25T04:07:18;15.46;68.33
70170;DHT22;57543;45.442;9.212;2023-03-25T04:11:01;15.58;67.98
70170;DHT22;57543;45.442;9.212;2023-03-25T04:13:58;15.63;67.75
70170;DHT22;57543;45.442;9.212;2023-03-25T04:17:04;15.70;67.55
70170;DHT22;57543;45.442;9.212;2023-03-25T04:20:17;15.56;67.99
70170;DHT22;57543;45.442;9.212;2023-03-25T04:23:27;15.39;68.56
70170;DHT22;57543;45.442;9.212;2023-03-25T04:26:34;15.32;68.83
70170;DHT22;57543;45.442;9.212;2023-03-25T04:29:40;15.31;68.75
70170;DHT22;57543;45.442;9.212;2023-03-25T04:32:44;15.30;68.78
70170;DHT22;57543;45.442;9.212;2023-03-25T04:35:50;15.15;69.13
70170;DHT22;57543;45.442;9.212;2023-03-25T04:38:54;15.04;69.58
70170;DHT22;57543;45.442;9.212;2023-03-25T04:41:58;15.08;69.43
70170;DHT22;57543;45.442;9.212;2023-03-25T04:45:06;15.07;69.40
70170;DHT22;57543;45.442;9.212;2023-03-25T04:48:20;15.11;69.37
70170;DHT22;57543;45.442;9.212;2023-03-25T04:51:26;15.18;69.14
70170;DHT22;57543;45.442;9.212;2023-03-25T04:54:29;15.08;69.58
70170;DHT22;57543;45.442;9.212;2023-03-25T04:57:33;15.03;69.80
70170;DHT22;57543;45.442;9.212;2023-03-25T05:00:36;15.03;69.77
70170;DHT22;57543;45.442;9.212;2023-03-25T05:03:39;15.05;69.84
70170;DHT22;57543;45.442;9.212;2023-03-25T05:06:45;14.98;69.94
70170;DHT22;57543;45.442;9.212;2023-03-25T05:09:49;14.96;69.94
70170;DHT22;57543;45.442;9.212;2023-03-25T05:12:58;14.93;70.02
70170;DHT22;57543;45.442;9.212;2023-03-25T05:16:02;14.98;69.93
70170;DHT22;57543;45.442;9.212;2023-03-25T05:19:06;15.04;69.93
70170;DHT22;57543;45.442;9.212;2023-03-25T05:22:10;15.11;69.72
70170;DHT22;57543;45.442;9.212;2023-03-25T05:25:15;15.04;69.94
70170;DHT22;57543;45.442;9.212;2023-03-25T05:28:20;14.97;70.05
70170;DHT22;57543;45.442;9.212;2023-03-25T05:31:23;14.90;70.26
70170;DHT22;57543;45.442;9.212;2023-03-25T05:34:27;15.01;70.02
70170;DHT22;57543;45.442;9.212;2023-03-25T05:37:32;15.01;69.85
70170;DHT22;57543;45.442;9.212;2023-03-25T05:40:36;14.69;71.24
70170;DHT22;57543;45.442;9.212;2023-03-25T05:43:40;14.72;71.09
70170;DHT22;57543;45.442;9.212;2023-03-25T05:46:44;14.86;70.70
70170;DHT22;57543;45.442;9.212;2023-03-25T05:49:47;14.98;70.30
70170;DHT22;57543;45.442;9.212;2023-03-25T05:52:52;15.07;70.03
70170;DHT22;57543;45.442;9.212;2023-03-25T05:55:56;15.17;69.62
70170;DHT22;57543;45.442;9.212;2023-03-25T05:58:59;15.21;69.43
70170;DHT22;57543;45.442;9.212;2023-03-25T06:02:04;15.32;69.13
70170;DHT22;57543;45.442;9.212;2023-03-25T06:05:11;15.39;68.71
70170;DHT22;57543;45.442;9.212;2023-03-25T06:08:18;15.45;68.58
70170;DHT22;57543;45.442;9.212;2023-03-25T06:11:28;15.50;68.42
70170;DHT22;57543;45.442;9.212;2023-03-25T06:14:31;15.53;68.40
70170;DHT22;57543;45.442;9.212;2023-03-25T06:17:35;15.50;68.63
70170;DHT22;57543;45.442;9.212;2023-03-25T06:20:42;15.55;68.63
70170;DHT22;57543;45.442;9.212;2023-03-25T06:23:46;15.55;68.45
70170;DHT22;57543;45.442;9.212;2023-03-25T06:26:52;15.42;69.20
70170;DHT22;57543;45.442;9.212;2023-03-25T06:29:56;15.48;68.93
70170;DHT22;57543;45.442;9.212;2023-03-25T06:33:00;15.58;68.53
70170;DHT22;57543;45.442;9.212;2023-03-25T06:36:08;15.59;68.71
70170;DHT22;57543;45.442;9.212;2023-03-25T06:39:13;15.59;68.90
70170;DHT22;57543;45.442;9.212;2023-03-25T06:42:17;15.59;68.85
70170;DHT22;57543;45.442;9.212;2023-03-25T06:45:56;15.65;68.85
70170;DHT22;57543;45.442;9.212;2023-03-25T06:49:20;15.82;68.44
70170;DHT22;57543;45.442;9.212;2023-03-25T06:52:24;15.84;68.31
70170;DHT22;57543;45.442;9.212;2023-03-25T06:55:28;15.84;68.25
70170;DHT22;57543;45.442;9.212;2023-03-25T06:58:32;15.89;68.14
70170;DHT22;57543;45.442;9.212;2023-03-25T07:01:38;15.98;67.84
70170;DHT22;57543;45.442;9.212;2023-03-25T07:04:42;16.05;67.59
70170;DHT22;57543;45.442;9.212;2023-03-25T07:07:47;16.11;67.97
70170;DHT22;57543;45.442;9.212;2023-03-25T07:10:50;16.20;67.62
70170;DHT22;57543;45.442;9.212;2023-03-25T07:13:54;16.17;67.91
70170;DHT22;57543;45.442;9.212;2023-03-25T07:16:58;16.24;67.74
70170;DHT22;57543;45.442;9.212;2023-03-25T07:20:04;16.38;67.42
70170;DHT22;57543;45.442;9.212;2023-03-25T07:23:08;16.39;67.46
70170;DHT22;57543;45.442;9.212;2023-03-25T07:26:12;16.46;67.36
70170;DHT22;57543;45.442;9.212;2023-03-25T07:29:16;16.56;66.93
70170;DHT22;57543;45.442;9.212;2023-03-25T07:32:20;16.59;66.77
70170;DHT22;57543;45.442;9.212;2023-03-25T07:35:24;16.73;65.88
70170;DHT22;57543;45.442;9.212;2023-03-25T07:38:27;16.79;65.87
70170;DHT22;57543;45.442;9.212;2023-03-25T07:41:31;16.99;65.72
70170;DHT22;57543;45.442;9.212;2023-03-25T07:44:46;17.15;64.81
70170;DHT22;57543;45.442;9.212;2023-03-25T07:47:49;17.25;64.30
70170;DHT22;57543;45.442;9.212;2023-03-25T07:50:53;17.39;64.07
70170;DHT22;57543;45.442;9.212;2023-03-25T07:53:57;17.56;63.32
70170;DHT22;57543;45.442;9.212;2023-03-25T07:57:00;17.69;62.91
70170;DHT22;57543;45.442;9.212;2023-03-25T08:00:05;17.83;62.69
70170;DHT22;57543;45.442;9.212;2023-03-25T08:03:15;18.04;62.07
70170;DHT22;57543;45.442;9.212;2023-03-25T08:06:19;18.21;61.39
70170;DHT22;57543;45.442;9.212;2023-03-25T08:09:23;18.45;60.93
70170;DHT22;57543;45.442;9.212;2023-03-25T08:12:26;18.67;60.44
70170;DHT22;57543;45.442;9.212;2023-03-25T08:15:30;18.96;59.64
70170;DHT22;57543;45.442;9.212;2023-03-25T08:18:34;19.18;58.77
70170;DHT22;57543;45.442;9.212;2023-03-25T08:21:37;19.43;58.05
70170;DHT22;57543;45.442;9.212;2023-03-25T08:24:41;19.69;57.50
70170;DHT22;57543;45.442;9.212;2023-03-25T08:27:45;19.87;56.27
70170;DHT22;57543;45.442;9.212;2023-03-25T08:30:49;20.21;55.25
70170;DHT22;57543;45.442;9.212;2023-03-25T08:34:01;20.57;54.57
70170;DHT22;57543;45.442;9.212;2023-03-25T08:37:05;21.01;53.57
70170;DHT22;57543;45.442;9.212;2023-03-25T08:40:10;21.37;52.23
70170;DHT22;57543;45.442;9.212;2023-03-25T08:43:13;21.50;51.69
70170;DHT22;57543;45.442;9.212;2023-03-25T08:46:17;21.65;51.13
70170;DHT22;57543;45.442;9.212;2023-03-25T08:49:21;21.76;51.03
70170;DHT22;57543;45.442;9.212;2023-03-25T08:52:25;21.84;50.55
70170;DHT22;57543;45.442;9.212;2023-03-25T08:55:28;21.91;51.15
70170;DHT22;57543;45.442;9.212;2023-03-25T08:58:32;22.01;50.57
70170;DHT22;57543;45.442;9.212;2023-03-25T09:01:36;22.05;49.68
70170;DHT22;57543;45.442;9.212;2023-03-25T09:04:40;21.84;49.63
70170;DHT22;57543;45.442;9.212;2023-03-25T09:07:44;21.98;49.81
70170;DHT22;57543;45.442;9.212;2023-03-25T09:10:48;22.02;49.22
70170;DHT22;57543;45.442;9.212;2023-03-25T09:13:52;22.01;48.55
70170;DHT22;57543;45.442;9.212;2023-03-25T09:16:56;22.01;48.72
70170;DHT22;57543;45.442;9.212;2023-03-25T09:19:59;22.01;48.54
70170;DHT22;57543;45.442;9.212;2023-03-25T09:23:02;22.07;48.18
70170;DHT22;57543;45.442;9.212;2023-03-25T09:26:06;22.17;47.67
70170;DHT22;57543;45.442;9.212;2023-03-25T09:29:10;22.15;46.09
70170;DHT22;57543;45.442;9.212;2023-03-25T09:32:14;22.24;46.25
70170;DHT22;57543;45.442;9.212;2023-03-25T09:35:18;22.32;46.24
70170;DHT22;57543;45.442;9.212;2023-03-25T09:38:22;22.35;46.23
70170;DHT22;57543;45.442;9.212;2023-03-25T09:47:51;22.53;45.74
70170;DHT22;57543;45.442;9.212;2023-03-25T09:51:08;22.62;45.37
70170;DHT22;57543;45.442;9.212;2023-03-25T09:54:27;22.67;46.70
70170;DHT22;57543;45.442;9.212;2023-03-25T09:57:39;22.73;46.60
70170;DHT22;57543;45.442;9.212;2023-03-25T10:01:03;22.80;47.60
70170;DHT22;57543;45.442;9.212;2023-03-25T10:11:51;22.89;46.31
70170;DHT22;57543;45.442;9.212;2023-03-25T10:15:04;22.91;46.05
70170;DHT22;57543;45.442;9.212;2023-03-25T10:18:28;22.94;45.04
70170;DHT22;57543;45.442;9.212;2023-03-25T10:24:59;22.91;45.33
70170;DHT22;57543;45.442;9.212;2023-03-25T10:28:06;22.98;44.33
70170;DHT22;57543;45.442;9.212;2023-03-25T10:31:16;22.97;44.37
70170;DHT22;57543;45.442;9.212;2023-03-25T10:34:43;23.04;43.28
70170;DHT22;57543;45.442;9.212;2023-03-25T10:37:52;23.12;43.02
70170;DHT22;57543;45.442;9.212;2023-03-25T10:44:10;23.24;44.21
70170;DHT22;57543;45.442;9.212;2023-03-25T10:47:26;23.26;43.69
70170;DHT22;57543;45.442;9.212;2023-03-25T10:50:31;23.34;43.65
70170;DHT22;57543;45.442;9.212;2023-03-25T10:53:35;23.14;41.54
70170;DHT22;57543;45.442;9.212;2023-03-25T10:56:44;23.28;40.18
70170;DHT22;57543;45.442;9.212;2023-03-25T10:59:56;23.25;39.14
70170;DHT22;57543;45.442;9.212;2023-03-25T11:03:01;23.25;38.62
70170;DHT22;57543;45.442;9.212;2023-03-25T11:06:05;23.52;38.94
70170;DHT22;57543;45.442;9.212;2023-03-25T11:09:26;23.63;39.30
70170;DHT22;57543;45.442;9.212;2023-03-25T11:12:32;23.77;40.42
70170;DHT22;57543;45.442;9.212;2023-03-25T11:15:37;23.94;39.08
70170;DHT22;57543;45.442;9.212;2023-03-25T11:18:41;24.04;38.20
70170;DHT22;57543;45.442;9.212;2023-03-25T11:21:47;24.59;37.23
70170;DHT22;57543;45.442;9.212;2023-03-25T11:25:18;25.35;35.67
70170;DHT22;57543;45.442;9.212;2023-03-25T11:28:53;26.52;34.46
70170;DHT22;57543;45.442;9.212;2023-03-25T11:32:12;27.94;32.13
70170;DHT22;57543;45.442;9.212;2023-03-25T11:35:29;28.89;27.73
70170;DHT22;57543;45.442;9.212;2023-03-25T11:38:37;29.38;26.03
70170;DHT22;57543;45.442;9.212;2023-03-25T11:41:41;29.82;24.83
70170;DHT22;57543;45.442;9.212;2023-03-25T11:44:52;30.89;24.12
70170;DHT22;57543;45.442;9.212;2023-03-25T11:47:59;31.16;22.75
70170;DHT22;57543;45.442;9.212;2023-03-25T11:51:07;31.41;21.39
70170;DHT22;57543;45.442;9.212;2023-03-25T11:54:15;31.48;21.68
70170;DHT22;57543;45.442;9.212;2023-03-25T11:57:32;31.24;21.65
70170;DHT22;57543;45.442;9.212;2023-03-25T12:00:39;30.42;21.59
70170;DHT22;57543;45.442;9.212;2023-03-25T12:03:43;29.76;22.58
70170;DHT22;57543;45.442;9.212;2023-03-25T12:07:05;29.00;23.53
70170;DHT22;57543;45.442;9.212;2023-03-25T12:13:48;27.53;25.18
70170;DHT22;57543;45.442;9.212;2023-03-25T12:20:33;26.60;27.08
70170;DHT22;57543;45.442;9.212;2023-03-25T12:23:56;26.28;27.01
70170;DHT22;57543;45.442;9.212;2023-03-25T12:27:14;26.00;27.53
70170;DHT22;57543;45.442;9.212;2023-03-25T12:30:31;25.80;28.50
70170;DHT22;57543;45.442;9.212;2023-03-25T12:34:12;25.69;28.13
70170;DHT22;57543;45.442;9.212;2023-03-25T12:37:30;25.65;28.10
70170;DHT22;57543;45.442;9.212;2023-03-25T12:44:05;25.45;25.75
70170;DHT22;57543;45.442;9.212;2023-03-25T12:47:22;25.39;26.62
70170;DHT22;57543;45.442;9.212;2023-03-25T13:07:45;25.62;25.66
70170;DHT22;57543;45.442;9.212;2023-03-25T13:10:57;25.61;27.09
70170;DHT22;57543;45.442;9.212;2023-03-25T13:14:14;25.56;27.24
70170;DHT22;57543;45.442;9.212;2023-03-25T13:17:27;25.75;25.74
70170;DHT22;57543;45.442;9.212;2023-03-25T13:20:40;25.92;24.86
70170;DHT22;57543;45.442;9.212;2023-03-25T13:23:49;25.92;25.16
70170;DHT22;57543;45.442;9.212;2023-03-25T13:26:54;25.96;26.42
70170;DHT22;57543;45.442;9.212;2023-03-25T13:30:00;26.03;24.98
70170;DHT22;57543;45.442;9.212;2023-03-25T13:33:27;26.08;24.95
70170;DHT22;57543;45.442;9.212;2023-03-25T13:36:47;26.18;23.38
70170;DHT22;57543;45.442;9.212;2023-03-25T13:43:07;26.38;23.46
70170;DHT22;57543;45.442;9.212;2023-03-25T13:46:19;26.44;24.06
70170;DHT22;57543;45.442;9.212;2023-03-25T13:52:35;26.29;24.69
70170;DHT22;57543;45.442;9.212;2023-03-25T13:55:47;26.38;24.43
70170;DHT22;57543;45.442;9.212;2023-03-25T14:02:38;26.34;24.07
70170;DHT22;57543;45.442;9.212;2023-03-25T14:12:31;26.45;22.47
70170;DHT22;57543;45.442;9.212;2023-03-25T14:15:38;26.52;23.07
70170;DHT22;57543;45.442;9.212;2023-03-25T14:18:47;26.62;23.42
70170;DHT22;57543;45.442;9.212;2023-03-25T14:21:51;26.72;23.02
70170;DHT22;57543;45.442;9.212;2023-03-25T14:24:56;26.78;22.80
70170;DHT22;57543;45.442;9.212;2023-03-25T14:28:01;26.96;21.88
70170;DHT22;57543;45.442;9.212;2023-03-25T14:34:25;26.68;22.27
70170;DHT22;57543;45.442;9.212;2023-03-25T14:37:29;26.56;21.96
70170;DHT22;57543;45.442;9.212;2023-03-25T14:43:51;26.79;21.16
70170;DHT22;57543;45.442;9.212;2023-03-25T14:53:25;26.80;21.73
70170;DHT22;57543;45.442;9.212;2023-03-25T14:56:40;26.72;22.21
70170;DHT22;57543;45.442;9.212;2023-03-25T15:00:00;26.72;20.75
70170;DHT22;57543;45.442;9.212;2023-03-25T15:03:11;26.68;20.51
70170;DHT22;57543;45.442;9.212;2023-03-25T15:06:27;26.65;20.78
70170;DHT22;57543;45.442;9.212;2023-03-25T15:09:30;26.52;20.82
70170;DHT22;57543;45.442;9.212;2023-03-25T15:12:37;26.48;20.42
70170;DHT22;57543;45.442;9.212;2023-03-25T15:25:21;26.63;20.89
70170;DHT22;57543;45.442;9.212;2023-03-25T15:32:56;26.45;19.79
70170;DHT22;57543;45.442;9.212;2023-03-25T15:36:04;26.34;21.05
70170;DHT22;57543;45.442;9.212;2023-03-25T15:42:58;26.20;20.17
70170;DHT22;57543;45.442;9.212;2023-03-25T15:50:04;26.10;20.62
70170;DHT22;57543;45.442;9.212;2023-03-25T15:53:31;26.05;18.52
70170;DHT22;57543;45.442;9.212;2023-03-25T15:56:41;26.08;18.70
70170;DHT22;57543;45.442;9.212;2023-03-25T15:59:59;25.96;18.97
70170;DHT22;57543;45.442;9.212;2023-03-25T16:03:13;25.77;19.51
70170;DHT22;57543;45.442;9.212;2023-03-25T16:06:18;25.56;20.17
70170;DHT22;57543;45.442;9.212;2023-03-25T16:09:25;25.42;20.41
70170;DHT22;57543;45.442;9.212;2023-03-25T16:12:28;25.21;21.23
70170;DHT22;57543;45.442;9.212;2023-03-25T16:15:34;25.08;21.09
70170;DHT22;57543;45.442;9.212;2023-03-25T16:18:40;24.91;19.95
70170;DHT22;57543;45.442;9.212;2023-03-25T16:21:51;24.93;19.53
70170;DHT22;57543;45.442;9.212;2023-03-25T16:24:57;24.80;19.71
70170;DHT22;57543;45.442;9.212;2023-03-25T16:28:13;24.73;19.21
70170;DHT22;57543;45.442;9.212;2023-03-25T16:31:32;24.70;19.03
70170;DHT22;57543;45.442;9.212;2023-03-25T16:34:39;24.72;18.96
70170;DHT22;57543;45.442;9.212;2023-03-25T16:37:43;24.63;19.46
70170;DHT22;57543;45.442;9.212;2023-03-25T16:40:48;24.56;19.35
70170;DHT22;57543;45.442;9.212;2023-03-25T16:43:52;24.47;20.09
70170;DHT22;57543;45.442;9.212;2023-03-25T16:46:59;24.24;20.56
70170;DHT22;57543;45.442;9.212;2023-03-25T16:50:03;24.04;20.16
70170;DHT22;57543;45.442;9.212;2023-03-25T16:53:12;23.94;20.24
70170;DHT22;57543;45.442;9.212;2023-03-25T16:59:26;23.66;20.98
70170;DHT22;57543;45.442;9.212;2023-03-25T17:02:37;23.55;21.44
70170;DHT22;57543;45.442;9.212;2023-03-25T17:06:02;23.35;22.80
70170;DHT22;57543;45.442;9.212;2023-03-25T17:09:14;23.11;24.23
70170;DHT22;57543;45.442;9.212;2023-03-25T17:12:20;23.00;25.36
70170;DHT22;57543;45.442;9.212;2023-03-25T17:15:25;22.91;25.18
70170;DHT22;57543;45.442;9.212;2023-03-25T17:18:30;22.77;25.59
70170;DHT22;57543;45.442;9.212;2023-03-25T17:21:35;22.79;25.53
70170;DHT22;57543;45.442;9.212;2023-03-25T17:24:42;22.69;26.00
70170;DHT22;57543;45.442;9.212;2023-03-25T17:27:46;22.64;26.32
70170;DHT22;57543;45.442;9.212;2023-03-25T17:30:50;22.59;26.50
70170;DHT22;57543;45.442;9.212;2023-03-25T17:34:00;22.62;26.51
70170;DHT22;57543;45.442;9.212;2023-03-25T17:37:04;22.41;26.48
70170;DHT22;57543;45.442;9.212;2023-03-25T17:40:19;22.29;26.70
70170;DHT22;57543;45.442;9.212;2023-03-25T17:43:23;22.22;26.88
70170;DHT22;57543;45.442;9.212;2023-03-25T17:46:31;22.24;27.14
70170;DHT22;57543;45.442;9.212;2023-03-25T17:49:35;22.11;26.57
70170;DHT22;57543;45.442;9.212;2023-03-25T17:52:38;22.10;26.56
70170;DHT22;57543;45.442;9.212;2023-03-25T17:55:42;22.07;26.17
70170;DHT22;57543;45.442;9.212;2023-03-25T17:58:46;22.01;26.20
70170;DHT22;57543;45.442;9.212;2023-03-25T18:01:50;22.02;26.13
70170;DHT22;57543;45.442;9.212;2023-03-25T18:04:54;22.00;26.26
70170;DHT22;57543;45.442;9.212;2023-03-25T18:07:57;21.94;25.81
70170;DHT22;57543;45.442;9.212;2023-03-25T18:11:02;21.93;25.97
70170;DHT22;57543;45.442;9.212;2023-03-25T18:14:05;21.96;25.26
70170;DHT22;57543;45.442;9.212;2023-03-25T18:17:11;21.83;24.78
70170;DHT22;57543;45.442;9.212;2023-03-25T18:20:18;21.82;24.52
70170;DHT22;57543;45.442;9.212;2023-03-25T18:23:22;21.73;24.06
70170;DHT22;57543;45.442;9.212;2023-03-25T18:26:26;21.66;23.79
70170;DHT22;57543;45.442;9.212;2023-03-25T18:29:31;21.57;23.13
70170;DHT22;57543;45.442;9.212;2023-03-25T18:32:34;21.55;23.11
70170;DHT22;57543;45.442;9.212;2023-03-25T18:35:38;21.49;22.82
70170;DHT22;57543;45.442;9.212;2023-03-25T18:38:43;21.41;22.65
70170;DHT22;57543;45.442;9.212;2023-03-25T18:41:46;21.31;22.78
70170;DHT22;57543;45.442;9.212;2023-03-25T18:44:50;21.20;23.07
70170;DHT22;57543;45.442;9.212;2023-03-25T18:47:54;21.12;22.99
70170;DHT22;57543;45.442;9.212;2023-03-25T18:50:59;21.07;23.05
70170;DHT22;57543;45.442;9.212;2023-03-25T18:54:03;21.04;23.05
70170;DHT22;57543;45.442;9.212;2023-03-25T18:57:07;21.04;22.85
70170;DHT22;57543;45.442;9.212;2023-03-25T19:00:21;21.05;22.90
70170;DHT22;57543;45.442;9.212;2023-03-25T19:03:26;21.08;23.19
70170;DHT22;57543;45.442;9.212;2023-03-25T19:06:33;21.12;23.01
70170;DHT22;57543;45.442;9.212;2023-03-25T19:09:37;21.12;22.97
70170;DHT22;57543;45.442;9.212;2023-03-25T19:12:42;21.08;22.48
70170;DHT22;57543;45.442;9.212;2023-03-25T19:15:46;20.94;22.43
70170;DHT22;57543;45.442;9.212;2023-03-25T19:18:50;20.86;22.51
70170;DHT22;57543;45.442;9.212;2023-03-25T19:21:54;20.73;22.50
70170;DHT22;57543;45.442;9.212;2023-03-25T19:24:58;20.70;22.44
70170;DHT22;57543;45.442;9.212;2023-03-25T19:28:02;20.70;22.26
70170;DHT22;57543;45.442;9.212;2023-03-25T19:31:06;20.57;22.11
70170;DHT22;57543;45.442;9.212;2023-03-25T19:34:10;20.49;22.64
70170;DHT22;57543;45.442;9.212;2023-03-25T19:37:14;20.53;23.73
70170;DHT22;57543;45.442;9.212;2023-03-25T19:40:20;20.48;24.38
70170;DHT22;57543;45.442;9.212;2023-03-25T19:43:24;20.56;24.69
70170;DHT22;57543;45.442;9.212;2023-03-25T19:46:27;20.62;24.99
70170;DHT22;57543;45.442;9.212;2023-03-25T19:49:34;20.39;25.49
70170;DHT22;57543;45.442;9.212;2023-03-25T19:52:38;20.20;25.73
70170;DHT22;57543;45.442;9.212;2023-03-25T19:55:42;20.25;26.12
70170;DHT22;57543;45.442;9.212;2023-03-25T19:58:46;20.18;26.01
70170;DHT22;57543;45.442;9.212;2023-03-25T20:01:50;20.15;26.49
70170;DHT22;57543;45.442;9.212;2023-03-25T20:04:53;20.10;26.06
70170;DHT22;57543;45.442;9.212;2023-03-25T20:07:57;20.08;25.70
70170;DHT22;57543;45.442;9.212;2023-03-25T20:11:07;19.87;28.28
70170;DHT22;57543;45.442;9.212;2023-03-25T20:14:11;19.96;28.64
70170;DHT22;57543;45.442;9.212;2023-03-25T20:17:14;19.98;28.98
70170;DHT22;57543;45.442;9.212;2023-03-25T20:20:19;19.88;29.28
70170;DHT22;57543;45.442;9.212;2023-03-25T20:23:24;19.84;29.31
70170;DHT22;57543;45.442;9.212;2023-03-25T20:26:28;19.73;30.47
70170;DHT22;57543;45.442;9.212;2023-03-25T20:29:31;19.63;30.59
70170;DHT22;57543;45.442;9.212;2023-03-25T20:32:35;19.53;30.79
70170;DHT22;57543;45.442;9.212;2023-03-25T20:35:39;19.52;30.40
70170;DHT22;57543;45.442;9.212;2023-03-25T20:38:43;19.53;29.96
70170;DHT22;57543;45.442;9.212;2023-03-25T20:41:47;19.51;30.01
70170;DHT22;57543;45.442;9.212;2023-03-25T20:44:50;19.26;30.26
70170;DHT22;57543;45.442;9.212;2023-03-25T20:47:55;19.22;30.17
70170;DHT22;57543;45.442;9.212;2023-03-25T20:51:01;19.34;30.07
70170;DHT22;57543;45.442;9.212;2023-03-25T20:54:07;19.35;29.60
70170;DHT22;57543;45.442;9.212;2023-03-25T20:57:10;19.41;30.04
70170;DHT22;57543;45.442;9.212;2023-03-25T21:00:14;19.34;31.33
70170;DHT22;57543;45.442;9.212;2023-03-25T21:03:21;19.25;30.80
70170;DHT22;57543;45.442;9.212;2023-03-25T21:06:25;19.15;30.56
70170;DHT22;57543;45.442;9.212;2023-03-25T21:09:29;19.15;31.07
70170;DHT22;57543;45.442;9.212;2023-03-25T21:12:34;19.11;31.39
70170;DHT22;57543;45.442;9.212;2023-03-25T21:15:40;18.94;32.23
70170;DHT22;57543;45.442;9.212;2023-03-25T21:18:44;18.83;32.16
70170;DHT22;57543;45.442;9.212;2023-03-25T21:21:49;18.80;31.76
70170;DHT22;57543;45.442;9.212;2023-03-25T21:24:53;18.76;31.45
70170;DHT22;57543;45.442;9.212;2023-03-25T21:27:57;18.73;31.04
70170;DHT22;57543;45.442;9.212;2023-03-25T21:31:12;18.77;31.05
70170;DHT22;57543;45.442;9.212;2023-03-25T21:34:21;18.80;31.20
70170;DHT22;57543;45.442;9.212;2023-03-25T21:37:25;18.69;31.31
70170;DHT22;57543;45.442;9.212;2023-03-25T21:40:31;18.67;32.00
70170;DHT22;57543;45.442;9.212;2023-03-25T21:43:37;18.49;32.94
70170;DHT22;57543;45.442;9.212;2023-03-25T21:46:44;18.43;33.28
70170;DHT22;57543;45.442;9.212;2023-03-25T21:49:48;18.29;33.69
70170;DHT22;57543;45.442;9.212;2023-03-25T21:52:52;18.18;34.13
70170;DHT22;57543;45.442;9.212;2023-03-25T21:55:58;18.07;34.42
70170;DHT22;57543;45.442;9.212;2023-03-25T21:59:12;18.02;34.47